sensor_id;sensor_type;location;lat;lon;timestamp;pressure;altitude;pressure_sealevel;temperature;humidity
63097;BME280;49185;42.320;23.198;2024-02-26T00:02:09;94427.59;;;4.98;100.00
63097;BME280;49185;42.320;23.198;2024-02-26T00:04:34;94415.44;;;4.97;100.00
63097;BME280;49185;42.320;23.198;2024-02-26T00:07:00;94405.63;;;5.04;100.00
63097;BME280;49185;42.320;23.198;2024-02-26T00:09:25;94416.13;;;5.22;100.00
63097;BME280;49185;42.320;23.198;2024-02-26T00:11:50;94411.13;;;5.32;100.00
63097;BME280;49185;42.320;23.198;2024-02-26T00:14:16;94424.03;;;5.22;100.00
63097;BME280;49185;42.320;23.198;2024-02-26T00:16:41;94411.81;;;5.09;100.00
63097;BME280;49185;42.320;23.198;2024-02-26T00:19:07;94411.09;;;5.02;100.00
63097;BME280;49185;42.320;23.198;2024-02-26T00:21:32;94422.31;;;4.98;100.00
63097;BME280;49185;42.320;23.198;2024-02-26T00:23:57;94418.34;;;4.88;100.00
63097;BME280;49185;42.320;23.198;2024-02-26T00:26:23;94422.63;;;4.89;100.00
63097;BME280;49185;42.320;23.198;2024-02-26T00:28:48;94421.16;;;4.75;100.00
63097;BME280;49185;42.320;23.198;2024-02-26T00:31:14;94419.09;;;4.77;100.00
63097;BME280;49185;42.320;23.198;2024-02-26T00:33:39;94415.88;;;4.75;100.00
63097;BME280;49185;42.320;23.198;2024-02-26T00:36:05;94400.38;;;4.85;100.00
63097;BME280;49185;42.320;23.198;2024-02-26T00:38:30;94403.25;;;4.95;100.00
63097;BME280;49185;42.320;23.198;2024-02-26T00:40:56;94395.00;;;4.92;100.00
63097;BME280;49185;42.320;23.198;2024-02-26T00:43:21;94391.34;;;4.93;100.00
63097;BME280;49185;42.320;23.198;2024-02-26T00:45:46;94392.72;;;4.95;100.00
63097;BME280;49185;42.320;23.198;2024-02-26T00:48:12;94393.69;;;5.01;100.00
63097;BME280;49185;42.320;23.198;2024-02-26T00:50:37;94395.22;;;5.09;100.00
63097;BME280;49185;42.320;23.198;2024-02-26T00:53:03;94394.50;;;5.02;100.00
63097;BME280;49185;42.320;23.198;2024-02-26T00:55:28;94390.00;;;5.02;100.00
63097;BME280;49185;42.320;23.198;2024-02-26T00:57:54;94384.88;;;5.07;100.00
63097;BME280;49185;42.320;23.198;2024-02-26T01:00:19;94389.00;;;5.03;100.00
63097;BME280;49185;42.320;23.198;2024-02-26T01:02:45;94387.00;;;4.99;100.00
63097;BME280;49185;42.320;23.198;2024-02-26T01:05:10;94385.41;;;4.98;100.00
63097;BME280;49185;42.320;23.198;2024-02-26T01:07:35;94386.16;;;5.05;100.00
63097;BME280;49185;42.320;23.198;2024-02-26T01:10:04;94381.25;;;5.20;100.00
63097;BME280;49185;42.320;23.198;2024-02-26T01:12:30;94381.88;;;5.34;100.00
63097;BME280;49185;42.320;23.198;2024-02-26T01:14:55;94387.06;;;5.41;100.00
63097;BME280;49185;42.320;23.198;2024-02-26T01:17:21;94379.34;;;5.27;100.00
63097;BME280;49185;42.320;23.198;2024-02-26T01:19:46;94382.44;;;5.24;100.00
63097;BME280;49185;42.320;23.198;2024-02-26T01:22:11;94380.25;;;5.21;100.00
63097;BME280;49185;42.320;23.198;2024-02-26T01:24:37;94378.94;;;5.42;100.00
63097;BME280;49185;42.320;23.198;2024-02-26T01:27:02;94379.97;;;5.41;100.00
63097;BME280;49185;42.320;23.198;2024-02-26T01:29:28;94373.53;;;5.37;100.00
63097;BME280;49185;42.320;23.198;2024-02-26T01:31:53;94375.47;;;5.30;100.00
63097;BME280;49185;42.320;23.198;2024-02-26T01:34:18;94373.69;;;5.24;100.00
63097;BME280;49185;42.320;23.198;2024-02-26T01:36:44;94371.88;;;5.24;100.00
63097;BME280;49185;42.320;23.198;2024-02-26T01:39:09;94373.47;;;5.25;100.00
63097;BME280;49185;42.320;23.198;2024-02-26T01:41:35;94370.28;;;5.23;100.00
63097;BME280;49185;42.320;23.198;2024-02-26T01:44:00;94365.34;;;5.27;100.00
63097;BME280;49185;42.320;23.198;2024-02-26T01:46:25;94361.34;;;5.24;100.00
63097;BME280;49185;42.320;23.198;2024-02-26T01:48:51;94358.09;;;5.22;100.00
63097;BME280;49185;42.320;23.198;2024-02-26T01:51:17;94353.22;;;5.26;100.00
63097;BME280;49185;42.320;23.198;2024-02-26T01:53:42;94355.94;;;5.31;100.00
63097;BME280;49185;42.320;23.198;2024-02-26T01:56:08;94354.28;;;5.37;100.00
63097;BME280;49185;42.320;23.198;2024-02-26T01:58:35;94346.47;;;5.42;100.00
63097;BME280;49185;42.320;23.198;2024-02-26T02:01:02;94340.13;;;5.31;100.00
63097;BME280;49185;42.320;23.198;2024-02-26T02:03:28;94350.44;;;5.32;100.00
63097;BME280;49185;42.320;23.198;2024-02-26T02:05:54;94353.56;;;5.29;100.00
63097;BME280;49185;42.320;23.198;2024-02-26T02:08:19;94348.28;;;5.29;100.00
63097;BME280;49185;42.320;23.198;2024-02-26T02:10:45;94353.56;;;5.29;100.00
63097;BME280;49185;42.320;23.198;2024-02-26T02:13:10;94350.59;;;5.38;100.00
63097;BME280;49185;42.320;23.198;2024-02-26T02:15:36;94328.81;;;5.42;100.00
63097;BME280;49185;42.320;23.198;2024-02-26T02:18:02;94327.69;;;5.50;100.00
63097;BME280;49185;42.320;23.198;2024-02-26T02:20:34;94343.84;;;5.54;100.00
63097;BME280;49185;42.320;23.198;2024-02-26T02:23:00;94339.16;;;5.56;100.00
63097;BME280;49185;42.320;23.198;2024-02-26T02:25:26;94333.66;;;5.57;100.00
63097;BME280;49185;42.320;23.198;2024-02-26T02:27:53;94338.13;;;5.57;100.00
63097;BME280;49185;42.320;23.198;2024-02-26T02:30:21;94339.97;;;5.56;100.00
63097;BME280;49185;42.320;23.198;2024-02-26T02:32:48;94342.00;;;5.54;100.00
63097;BME280;49185;42.320;23.198;2024-02-26T02:35:14;94346.72;;;5.52;100.00
63097;BME280;49185;42.320;23.198;2024-02-26T02:37:39;94352.25;;;5.62;100.00
63097;BME280;49185;42.320;23.198;2024-02-26T02:40:05;94353.88;;;5.75;100.00
63097;BME280;49185;42.320;23.198;2024-02-26T02:42:30;94362.28;;;5.72;100.00
63097;BME280;49185;42.320;23.198;2024-02-26T02:44:56;94358.69;;;5.66;100.00
63097;BME280;49185;42.320;23.198;2024-02-26T02:47:21;94362.09;;;5.55;100.00
63097;BME280;49185;42.320;23.198;2024-02-26T02:49:47;94356.91;;;5.48;100.00
63097;BME280;49185;42.320;23.198;2024-02-26T02:52:12;94354.16;;;5.43;100.00
63097;BME280;49185;42.320;23.198;2024-02-26T02:54:37;94365.72;;;5.30;100.00
63097;BME280;49185;42.320;23.198;2024-02-26T02:57:03;94355.59;;;5.27;100.00
63097;BME280;49185;42.320;23.198;2024-02-26T02:59:28;94361.91;;;5.26;100.00
63097;BME280;49185;42.320;23.198;2024-02-26T03:01:54;94354.22;;;5.25;100.00
63097;BME280;49185;42.320;23.198;2024-02-26T03:04:19;94347.94;;;5.38;100.00
63097;BME280;49185;42.320;23.198;2024-02-26T03:06:44;94348.88;;;5.43;100.00
63097;BME280;49185;42.320;23.198;2024-02-26T03:09:10;94356.56;;;5.45;100.00
63097;BME280;49185;42.320;23.198;2024-02-26T03:11:35;94352.91;;;5.46;100.00
63097;BME280;49185;42.320;23.198;2024-02-26T03:14:01;94350.63;;;5.49;100.00
63097;BME280;49185;42.320;23.198;2024-02-26T03:16:26;94352.81;;;5.53;100.00
63097;BME280;49185;42.320;23.198;2024-02-26T03:18:51;94350.75;;;5.55;100.00
63097;BME280;49185;42.320;23.198;2024-02-26T03:21:18;94348.34;;;5.53;100.00
63097;BME280;49185;42.320;23.198;2024-02-26T03:23:43;94347.09;;;5.67;100.00
63097;BME280;49185;42.320;23.198;2024-02-26T03:26:08;94346.09;;;5.68;100.00
63097;BME280;49185;42.320;23.198;2024-02-26T03:28:34;94342.28;;;5.64;100.00
63097;BME280;49185;42.320;23.198;2024-02-26T03:31:01;94338.63;;;5.65;100.00
63097;BME280;49185;42.320;23.198;2024-02-26T03:33:26;94339.66;;;5.76;100.00
63097;BME280;49185;42.320;23.198;2024-02-26T03:35:51;94336.56;;;5.79;100.00
63097;BME280;49185;42.320;23.198;2024-02-26T03:38:17;94336.91;;;5.83;100.00
63097;BME280;49185;42.320;23.198;2024-02-26T03:40:42;94328.53;;;5.86;100.00
63097;BME280;49185;42.320;23.198;2024-02-26T03:43:08;94333.69;;;5.93;100.00
63097;BME280;49185;42.320;23.198;2024-02-26T03:45:33;94329.81;;;5.95;100.00
63097;BME280;49185;42.320;23.198;2024-02-26T03:47:59;94333.47;;;5.94;100.00
63097;BME280;49185;42.320;23.198;2024-02-26T03:50:24;94331.66;;;6.06;100.00
63097;BME280;49185;42.320;23.198;2024-02-26T03:52:50;94319.72;;;6.16;100.00
63097;BME280;49185;42.320;23.198;2024-02-26T03:55:15;94322.34;;;6.16;100.00
63097;BME280;49185;42.320;23.198;2024-02-26T03:57:40;94316.97;;;6.11;100.00
63097;BME280;49185;42.320;23.198;2024-02-26T04:00:06;94308.34;;;6.03;100.00
63097;BME280;49185;42.320;23.198;2024-02-26T04:02:32;94312.94;;;6.08;100.00
63097;BME280;49185;42.320;23.198;2024-02-26T04:04:57;94309.16;;;6.16;100.00
63097;BME280;49185;42.320;23.198;2024-02-26T04:07:22;94307.34;;;6.16;100.00
63097;BME280;49185;42.320;23.198;2024-02-26T04:09:48;94304.78;;;6.21;100.00
63097;BME280;49185;42.320;23.198;2024-02-26T04:12:13;94313.16;;;6.30;100.00
63097;BME280;49185;42.320;23.198;2024-02-26T04:14:39;94302.59;;;6.30;100.00
63097;BME280;49185;42.320;23.198;2024-02-26T04:17:04;94304.66;;;6.28;100.00
63097;BME280;49185;42.320;23.198;2024-02-26T04:19:29;94303.75;;;6.34;100.00
63097;BME280;49185;42.320;23.198;2024-02-26T04:21:55;94294.19;;;6.33;100.00
63097;BME280;49185;42.320;23.198;2024-02-26T04:24:20;94289.38;;;6.42;100.00
63097;BME280;49185;42.320;23.198;2024-02-26T04:26:46;94290.97;;;6.43;100.00
63097;BME280;49185;42.320;23.198;2024-02-26T04:29:11;94290.03;;;6.49;100.00
63097;BME280;49185;42.320;23.198;2024-02-26T04:31:37;94291.75;;;6.55;100.00
63097;BME280;49185;42.320;23.198;2024-02-26T04:34:03;94286.09;;;6.63;100.00
63097;BME280;49185;42.320;23.198;2024-02-26T04:36:28;94279.06;;;6.69;100.00
63097;BME280;49185;42.320;23.198;2024-02-26T04:38:53;94280.69;;;6.58;100.00
63097;BME280;49185;42.320;23.198;2024-02-26T04:41:19;94294.13;;;6.57;100.00
63097;BME280;49185;42.320;23.198;2024-02-26T04:43:44;94291.50;;;6.57;100.00
63097;BME280;49185;42.320;23.198;2024-02-26T04:46:10;94290.16;;;6.54;100.00
63097;BME280;49185;42.320;23.198;2024-02-26T04:48:36;94283.16;;;6.48;100.00
63097;BME280;49185;42.320;23.198;2024-02-26T04:51:02;94295.78;;;6.46;100.00
63097;BME280;49185;42.320;23.198;2024-02-26T04:53:27;94286.25;;;6.45;100.00
63097;BME280;49185;42.320;23.198;2024-02-26T04:55:53;94288.19;;;6.50;100.00
63097;BME280;49185;42.320;23.198;2024-02-26T04:58:18;94290.25;;;6.47;100.00
63097;BME280;49185;42.320;23.198;2024-02-26T05:00:44;94288.78;;;6.52;100.00
63097;BME280;49185;42.320;23.198;2024-02-26T05:03:09;94281.19;;;6.55;100.00
63097;BME280;49185;42.320;23.198;2024-02-26T05:05:34;94278.88;;;6.59;100.00
63097;BME280;49185;42.320;23.198;2024-02-26T05:08:00;94280.81;;;6.63;100.00
63097;BME280;49185;42.320;23.198;2024-02-26T05:10:25;94277.94;;;6.65;100.00
63097;BME280;49185;42.320;23.198;2024-02-26T05:12:50;94287.56;;;6.71;100.00
63097;BME280;49185;42.320;23.198;2024-02-26T05:15:16;94294.09;;;6.80;100.00
63097;BME280;49185;42.320;23.198;2024-02-26T05:17:41;94295.34;;;6.78;100.00
63097;BME280;49185;42.320;23.198;2024-02-26T05:20:07;94301.06;;;6.87;100.00
63097;BME280;49185;42.320;23.198;2024-02-26T05:22:32;94302.47;;;6.89;100.00
63097;BME280;49185;42.320;23.198;2024-02-26T05:24:58;94298.75;;;6.90;100.00
63097;BME280;49185;42.320;23.198;2024-02-26T05:27:23;94307.13;;;6.99;100.00
63097;BME280;49185;42.320;23.198;2024-02-26T05:29:49;94315.28;;;6.97;100.00
63097;BME280;49185;42.320;23.198;2024-02-26T05:32:14;94322.84;;;7.06;100.00
63097;BME280;49185;42.320;23.198;2024-02-26T05:34:39;94323.50;;;7.13;100.00
63097;BME280;49185;42.320;23.198;2024-02-26T05:37:05;94333.31;;;6.72;100.00
63097;BME280;49185;42.320;23.198;2024-02-26T05:39:30;94329.22;;;6.40;100.00
63097;BME280;49185;42.320;23.198;2024-02-26T05:41:55;94329.00;;;6.42;100.00
63097;BME280;49185;42.320;23.198;2024-02-26T05:44:22;94336.34;;;6.52;100.00
63097;BME280;49185;42.320;23.198;2024-02-26T05:46:47;94333.44;;;6.65;100.00
63097;BME280;49185;42.320;23.198;2024-02-26T05:49:13;94338.06;;;6.46;100.00
63097;BME280;49185;42.320;23.198;2024-02-26T05:51:38;94349.34;;;6.41;100.00
63097;BME280;49185;42.320;23.198;2024-02-26T05:54:04;94351.50;;;6.44;100.00
63097;BME280;49185;42.320;23.198;2024-02-26T05:56:29;94361.28;;;6.44;100.00
63097;BME280;49185;42.320;23.198;2024-02-26T05:58:54;94359.56;;;6.38;100.00
63097;BME280;49185;42.320;23.198;2024-02-26T06:01:20;94360.72;;;6.42;100.00
63097;BME280;49185;42.320;23.198;2024-02-26T06:03:45;94366.22;;;6.40;100.00
63097;BME280;49185;42.320;23.198;2024-02-26T06:06:11;94368.53;;;6.49;100.00
63097;BME280;49185;42.320;23.198;2024-02-26T06:08:37;94361.63;;;6.47;100.00
63097;BME280;49185;42.320;23.198;2024-02-26T06:11:08;94365.41;;;6.52;100.00
63097;BME280;49185;42.320;23.198;2024-02-26T06:13:34;94361.50;;;6.42;100.00
63097;BME280;49185;42.320;23.198;2024-02-26T06:16:00;94364.94;;;6.55;100.00
63097;BME280;49185;42.320;23.198;2024-02-26T06:18:26;94366.44;;;6.62;100.00
63097;BME280;49185;42.320;23.198;2024-02-26T06:20:51;94369.88;;;6.75;100.00
63097;BME280;49185;42.320;23.198;2024-02-26T06:23:17;94371.31;;;6.82;100.00
63097;BME280;49185;42.320;23.198;2024-02-26T06:25:42;94359.00;;;6.88;100.00
63097;BME280;49185;42.320;23.198;2024-02-26T06:28:08;94357.59;;;6.97;100.00
63097;BME280;49185;42.320;23.198;2024-02-26T06:30:34;94362.53;;;7.06;100.00
63097;BME280;49185;42.320;23.198;2024-02-26T06:33:00;94356.53;;;7.10;100.00
63097;BME280;49185;42.320;23.198;2024-02-26T06:35:26;94349.50;;;7.16;100.00
63097;BME280;49185;42.320;23.198;2024-02-26T06:37:52;94356.88;;;7.14;100.00
63097;BME280;49185;42.320;23.198;2024-02-26T06:40:18;94357.19;;;7.17;100.00
63097;BME280;49185;42.320;23.198;2024-02-26T06:42:44;94359.13;;;7.22;100.00
63097;BME280;49185;42.320;23.198;2024-02-26T06:45:09;94367.47;;;7.31;100.00
63097;BME280;49185;42.320;23.198;2024-02-26T06:47:35;94371.63;;;7.38;100.00
63097;BME280;49185;42.320;23.198;2024-02-26T06:50:00;94371.53;;;7.50;100.00
63097;BME280;49185;42.320;23.198;2024-02-26T06:52:26;94371.25;;;7.64;100.00
63097;BME280;49185;42.320;23.198;2024-02-26T06:54:52;94367.41;;;7.71;100.00
63097;BME280;49185;42.320;23.198;2024-02-26T06:57:17;94378.16;;;7.82;100.00
63097;BME280;49185;42.320;23.198;2024-02-26T06:59:42;94371.13;;;8.04;100.00
63097;BME280;49185;42.320;23.198;2024-02-26T07:02:08;94388.84;;;8.04;100.00
63097;BME280;49185;42.320;23.198;2024-02-26T07:04:33;94388.06;;;8.20;100.00
63097;BME280;49185;42.320;23.198;2024-02-26T07:06:59;94373.81;;;8.26;100.00
63097;BME280;49185;42.320;23.198;2024-02-26T07:09:25;94387.16;;;8.31;100.00
63097;BME280;49185;42.320;23.198;2024-02-26T07:11:50;94387.16;;;8.31;100.00
63097;BME280;49185;42.320;23.198;2024-02-26T07:14:15;94397.91;;;8.42;100.00
63097;BME280;49185;42.320;23.198;2024-02-26T07:16:41;94395.84;;;8.61;100.00
63097;BME280;49185;42.320;23.198;2024-02-26T07:19:06;94390.53;;;8.61;100.00
63097;BME280;49185;42.320;23.198;2024-02-26T07:21:32;94401.13;;;8.61;100.00
63097;BME280;49185;42.320;23.198;2024-02-26T07:23:57;94405.22;;;8.51;100.00
63097;BME280;49185;42.320;23.198;2024-02-26T07:26:22;94404.13;;;8.47;100.00
63097;BME280;49185;42.320;23.198;2024-02-26T07:28:48;94404.50;;;8.56;100.00
63097;BME280;49185;42.320;23.198;2024-02-26T07:31:13;94410.28;;;8.53;100.00
63097;BME280;49185;42.320;23.198;2024-02-26T07:33:38;94403.09;;;8.48;100.00
63097;BME280;49185;42.320;23.198;2024-02-26T07:36:04;94406.50;;;8.32;100.00
63097;BME280;49185;42.320;23.198;2024-02-26T07:38:29;94410.72;;;8.84;100.00
63097;BME280;49185;42.320;23.198;2024-02-26T07:40:55;94410.53;;;8.90;100.00
63097;BME280;49185;42.320;23.198;2024-02-26T07:43:20;94405.81;;;8.92;100.00
63097;BME280;49185;42.320;23.198;2024-02-26T07:45:45;94409.50;;;9.36;100.00
63097;BME280;49185;42.320;23.198;2024-02-26T07:48:11;94409.13;;;9.27;100.00
63097;BME280;49185;42.320;23.198;2024-02-26T07:50:36;94408.84;;;9.50;100.00
63097;BME280;49185;42.320;23.198;2024-02-26T07:53:02;94404.44;;;9.61;100.00
63097;BME280;49185;42.320;23.198;2024-02-26T07:55:27;94401.72;;;9.51;100.00
63097;BME280;49185;42.320;23.198;2024-02-26T07:57:52;94392.78;;;9.62;100.00
63097;BME280;49185;42.320;23.198;2024-02-26T08:00:18;94392.75;;;9.84;100.00
63097;BME280;49185;42.320;23.198;2024-02-26T08:02:44;94387.72;;;9.61;100.00
63097;BME280;49185;42.320;23.198;2024-02-26T08:05:09;94383.97;;;9.57;100.00
63097;BME280;49185;42.320;23.198;2024-02-26T08:07:34;94381.00;;;9.53;100.00
63097;BME280;49185;42.320;23.198;2024-02-26T08:10:00;94387.56;;;9.73;100.00
63097;BME280;49185;42.320;23.198;2024-02-26T08:12:25;94385.31;;;9.86;100.00
63097;BME280;49185;42.320;23.198;2024-02-26T08:14:51;94374.25;;;10.00;100.00
63097;BME280;49185;42.320;23.198;2024-02-26T08:17:16;94379.41;;;10.12;100.00
63097;BME280;49185;42.320;23.198;2024-02-26T08:19:41;94382.34;;;10.15;100.00
63097;BME280;49185;42.320;23.198;2024-02-26T08:22:07;94377.41;;;10.67;100.00
63097;BME280;49185;42.320;23.198;2024-02-26T08:24:32;94375.25;;;10.63;100.00
63097;BME280;49185;42.320;23.198;2024-02-26T08:26:58;94376.09;;;10.69;100.00
63097;BME280;49185;42.320;23.198;2024-02-26T08:29:23;94369.94;;;10.63;100.00
63097;BME280;49185;42.320;23.198;2024-02-26T08:31:48;94372.13;;;10.72;100.00
63097;BME280;49185;42.320;23.198;2024-02-26T08:34:14;94371.88;;;10.73;100.00
63097;BME280;49185;42.320;23.198;2024-02-26T08:36:39;94365.09;;;11.03;100.00
63097;BME280;49185;42.320;23.198;2024-02-26T08:39:05;94364.66;;;11.27;100.00
63097;BME280;49185;42.320;23.198;2024-02-26T08:41:30;94368.34;;;11.26;100.00
63097;BME280;49185;42.320;23.198;2024-02-26T08:43:55;94362.28;;;11.51;100.00
63097;BME280;49185;42.320;23.198;2024-02-26T08:46:21;94366.06;;;11.55;100.00
63097;BME280;49185;42.320;23.198;2024-02-26T08:48:46;94370.88;;;11.58;100.00
63097;BME280;49185;42.320;23.198;2024-02-26T08:51:12;94362.88;;;11.73;100.00
63097;BME280;49185;42.320;23.198;2024-02-26T08:53:37;94359.16;;;11.69;100.00
63097;BME280;49185;42.320;23.198;2024-02-26T08:56:03;94354.09;;;11.68;100.00
63097;BME280;49185;42.320;23.198;2024-02-26T08:58:29;94355.97;;;11.72;100.00
63097;BME280;49185;42.320;23.198;2024-02-26T09:00:55;94357.03;;;11.82;100.00
63097;BME280;49185;42.320;23.198;2024-02-26T09:03:20;94363.41;;;11.75;100.00
63097;BME280;49185;42.320;23.198;2024-02-26T09:05:46;94362.13;;;11.88;100.00
63097;BME280;49185;42.320;23.198;2024-02-26T09:08:11;94360.53;;;11.98;100.00
63097;BME280;49185;42.320;23.198;2024-02-26T09:10:38;94354.91;;;11.89;100.00
63097;BME280;49185;42.320;23.198;2024-02-26T09:13:04;94350.63;;;11.83;100.00
63097;BME280;49185;42.320;23.198;2024-02-26T09:15:29;94344.22;;;11.78;100.00
63097;BME280;49185;42.320;23.198;2024-02-26T09:17:54;94344.47;;;11.72;100.00
63097;BME280;49185;42.320;23.198;2024-02-26T09:20:20;94343.19;;;11.80;100.00
63097;BME280;49185;42.320;23.198;2024-02-26T09:22:46;94342.63;;;11.67;100.00
63097;BME280;49185;42.320;23.198;2024-02-26T09:25:11;94336.72;;;11.45;100.00
63097;BME280;49185;42.320;23.198;2024-02-26T09:27:37;94346.31;;;11.46;100.00
63097;BME280;49185;42.320;23.198;2024-02-26T09:30:02;94357.81;;;11.77;100.00
63097;BME280;49185;42.320;23.198;2024-02-26T09:32:28;94355.38;;;11.50;100.00
63097;BME280;49185;42.320;23.198;2024-02-26T09:34:53;94353.03;;;11.64;100.00
63097;BME280;49185;42.320;23.198;2024-02-26T09:37:19;94363.41;;;11.70;100.00
63097;BME280;49185;42.320;23.198;2024-02-26T09:39:44;94359.66;;;11.46;100.00
63097;BME280;49185;42.320;23.198;2024-02-26T09:42:12;94367.47;;;11.99;100.00
63097;BME280;49185;42.320;23.198;2024-02-26T09:44:40;94370.13;;;12.40;100.00
63097;BME280;49185;42.320;23.198;2024-02-26T09:47:08;94360.53;;;12.33;100.00
63097;BME280;49185;42.320;23.198;2024-02-26T09:49:35;94366.13;;;12.32;100.00
63097;BME280;49185;42.320;23.198;2024-02-26T09:52:01;94359.22;;;12.41;100.00
63097;BME280;49185;42.320;23.198;2024-02-26T09:54:29;94363.69;;;12.77;100.00
63097;BME280;49185;42.320;23.198;2024-02-26T09:56:59;94367.41;;;12.76;100.00
63097;BME280;49185;42.320;23.198;2024-02-26T09:59:25;94367.66;;;12.84;100.00
63097;BME280;49185;42.320;23.198;2024-02-26T10:01:53;94358.88;;;12.68;100.00
63097;BME280;49185;42.320;23.198;2024-02-26T10:04:19;94369.78;;;12.87;100.00
63097;BME280;49185;42.320;23.198;2024-02-26T10:06:46;94367.28;;;13.11;100.00
63097;BME280;49185;42.320;23.198;2024-02-26T10:09:12;94358.50;;;13.01;100.00
63097;BME280;49185;42.320;23.198;2024-02-26T10:11:38;94362.28;;;12.95;100.00
63097;BME280;49185;42.320;23.198;2024-02-26T10:14:05;94359.84;;;13.03;99.60
63097;BME280;49185;42.320;23.198;2024-02-26T10:16:31;94354.69;;;13.22;99.66
63097;BME280;49185;42.320;23.198;2024-02-26T10:18:57;94358.75;;;13.04;100.00
63097;BME280;49185;42.320;23.198;2024-02-26T10:21:22;94345.19;;;12.96;98.36
63097;BME280;49185;42.320;23.198;2024-02-26T10:23:49;94337.69;;;12.98;100.00
63097;BME280;49185;42.320;23.198;2024-02-26T10:26:15;94335.00;;;13.03;99.90
63097;BME280;49185;42.320;23.198;2024-02-26T10:28:45;94338.53;;;12.93;99.74
63097;BME280;49185;42.320;23.198;2024-02-26T10:31:11;94333.47;;;12.86;98.92
63097;BME280;49185;42.320;23.198;2024-02-26T10:33:37;94333.16;;;12.98;99.18
63097;BME280;49185;42.320;23.198;2024-02-26T10:36:04;94336.63;;;12.99;96.76
63097;BME280;49185;42.320;23.198;2024-02-26T10:38:30;94328.66;;;12.88;99.42
63097;BME280;49185;42.320;23.198;2024-02-26T10:40:56;94334.84;;;13.44;98.72
63097;BME280;49185;42.320;23.198;2024-02-26T10:43:21;94337.31;;;13.25;96.68
63097;BME280;49185;42.320;23.198;2024-02-26T10:45:46;94331.72;;;13.32;97.60
63097;BME280;49185;42.320;23.198;2024-02-26T10:48:13;94328.56;;;13.14;96.62
63097;BME280;49185;42.320;23.198;2024-02-26T10:50:40;94326.00;;;12.78;97.48
63097;BME280;49185;42.320;23.198;2024-02-26T10:53:12;94331.22;;;13.14;95.85
63097;BME280;49185;42.320;23.198;2024-02-26T10:55:39;94327.81;;;13.58;93.91
63097;BME280;49185;42.320;23.198;2024-02-26T10:58:07;94330.75;;;13.96;89.44
63097;BME280;49185;42.320;23.198;2024-02-26T11:00:35;94331.16;;;14.14;87.81
63097;BME280;49185;42.320;23.198;2024-02-26T11:03:01;94325.31;;;14.70;88.14
63097;BME280;49185;42.320;23.198;2024-02-26T11:05:28;94323.00;;;14.29;86.95
63097;BME280;49185;42.320;23.198;2024-02-26T11:07:54;94322.63;;;14.12;90.26
63097;BME280;49185;42.320;23.198;2024-02-26T11:10:21;94323.44;;;14.07;89.49
63097;BME280;49185;42.320;23.198;2024-02-26T11:12:48;94323.69;;;14.11;91.07
63097;BME280;49185;42.320;23.198;2024-02-26T11:15:15;94315.25;;;14.28;86.52
63097;BME280;49185;42.320;23.198;2024-02-26T11:17:42;94318.75;;;13.94;86.21
63097;BME280;49185;42.320;23.198;2024-02-26T11:20:10;94323.13;;;14.14;88.47
63097;BME280;49185;42.320;23.198;2024-02-26T11:22:36;94315.56;;;14.21;89.24
63097;BME280;49185;42.320;23.198;2024-02-26T11:25:02;94307.66;;;14.05;88.63
63097;BME280;49185;42.320;23.198;2024-02-26T11:27:31;94299.75;;;14.54;86.92
63097;BME280;49185;42.320;23.198;2024-02-26T11:29:59;94296.53;;;14.52;85.50
63097;BME280;49185;42.320;23.198;2024-02-26T11:32:26;94298.59;;;15.08;83.01
63097;BME280;49185;42.320;23.198;2024-02-26T11:34:53;94294.97;;;14.99;82.88
63097;BME280;49185;42.320;23.198;2024-02-26T11:37:19;94283.69;;;14.54;79.60
63097;BME280;49185;42.320;23.198;2024-02-26T11:39:45;94290.78;;;14.39;78.72
63097;BME280;49185;42.320;23.198;2024-02-26T11:42:14;94287.38;;;14.63;80.85
63097;BME280;49185;42.320;23.198;2024-02-26T11:44:40;94291.69;;;14.59;78.60
63097;BME280;49185;42.320;23.198;2024-02-26T11:47:21;94295.56;;;14.42;76.38
63097;BME280;49185;42.320;23.198;2024-02-26T11:49:47;94295.94;;;14.01;79.57
63097;BME280;49185;42.320;23.198;2024-02-26T11:52:13;94294.41;;;14.24;79.50
63097;BME280;49185;42.320;23.198;2024-02-26T11:54:47;94296.88;;;13.86;82.52
63097;BME280;49185;42.320;23.198;2024-02-26T11:57:39;94293.72;;;13.79;82.00
63097;BME280;49185;42.320;23.198;2024-02-26T12:00:12;94298.28;;;13.74;82.50
63097;BME280;49185;42.320;23.198;2024-02-26T12:05:07;94301.81;;;13.69;82.66
63097;BME280;49185;42.320;23.198;2024-02-26T12:07:34;94307.81;;;13.90;83.26
63097;BME280;49185;42.320;23.198;2024-02-26T12:10:21;94302.50;;;13.85;82.28
63097;BME280;49185;42.320;23.198;2024-02-26T12:12:49;94301.84;;;13.98;82.34
63097;BME280;49185;42.320;23.198;2024-02-26T12:15:15;94301.22;;;14.12;81.15
63097;BME280;49185;42.320;23.198;2024-02-26T12:17:41;94299.41;;;14.02;80.58
63097;BME280;49185;42.320;23.198;2024-02-26T12:20:10;94307.38;;;14.41;79.51
63097;BME280;49185;42.320;23.198;2024-02-26T12:22:39;94299.72;;;14.30;80.21
63097;BME280;49185;42.320;23.198;2024-02-26T12:25:05;94301.75;;;14.43;79.47
63097;BME280;49185;42.320;23.198;2024-02-26T12:27:30;94307.38;;;14.41;78.86
63097;BME280;49185;42.320;23.198;2024-02-26T12:29:56;94306.13;;;14.29;78.28
63097;BME280;49185;42.320;23.198;2024-02-26T12:32:21;94300.66;;;14.15;79.00
63097;BME280;49185;42.320;23.198;2024-02-26T12:34:46;94307.91;;;14.09;78.39
63097;BME280;49185;42.320;23.198;2024-02-26T12:37:12;94317.50;;;14.15;77.24
63097;BME280;49185;42.320;23.198;2024-02-26T12:39:38;94309.50;;;14.39;77.43
63097;BME280;49185;42.320;23.198;2024-02-26T12:42:03;94301.44;;;14.44;76.64
63097;BME280;49185;42.320;23.198;2024-02-26T12:44:29;94303.66;;;14.37;76.97